createdAt,value
2019-03-09T00:01:02.925Z,7.80
2019-03-09T00:03:31.492Z,7.80
2019-03-09T00:06:00.030Z,7.80
2019-03-09T00:08:28.610Z,7.90
2019-03-09T00:10:57.147Z,7.80
2019-03-09T00:13:25.803Z,7.80
2019-03-09T00:15:54.679Z,7.90
2019-03-09T00:18:23.227Z,7.90
2019-03-09T00:20:52.150Z,7.90
2019-03-09T00:23:34.891Z,7.90
2019-03-09T00:26:07.787Z,7.90
2019-03-09T00:28:38.074Z,7.90
2019-03-09T00:31:26.405Z,8.00
2019-03-09T00:33:54.941Z,8.00
2019-03-09T00:36:23.518Z,8.00
2019-03-09T00:38:52.067Z,8.00
2019-03-09T00:41:20.646Z,8.00
2019-03-09T00:43:49.187Z,8.10
2019-03-09T00:46:17.724Z,8.10
2019-03-09T00:48:46.364Z,8.10
2019-03-09T00:51:14.907Z,8.10
2019-03-09T00:53:43.527Z,8.20
2019-03-09T00:56:12.159Z,8.20
2019-03-09T00:58:40.738Z,8.20
2019-03-09T01:01:09.279Z,8.20
2019-03-09T01:03:37.951Z,8.20
2019-03-09T01:06:06.488Z,8.20
2019-03-09T01:08:35.071Z,8.20
2019-03-09T01:11:03.723Z,8.20
2019-03-09T01:13:32.705Z,8.30
2019-03-09T01:16:01.230Z,8.30
2019-03-09T01:18:29.764Z,8.30
2019-03-09T01:20:58.351Z,8.30
2019-03-09T01:23:26.950Z,8.40
2019-03-09T01:25:55.599Z,8.40
2019-03-09T01:28:24.143Z,8.50
2019-03-09T01:30:52.845Z,8.50
2019-03-09T01:33:21.388Z,8.50
2019-03-09T01:35:50.114Z,8.60
2019-03-09T01:38:18.643Z,8.60
2019-03-09T01:40:47.250Z,8.60
2019-03-09T01:43:15.823Z,8.70
2019-03-09T01:45:44.364Z,8.70
2019-03-09T01:48:13.005Z,8.80
2019-03-09T01:50:41.620Z,8.80
2019-03-09T01:53:10.272Z,8.80
2019-03-09T01:55:38.821Z,8.80
2019-03-09T01:58:07.335Z,8.90
2019-03-09T02:00:35.978Z,8.80
2019-03-09T02:03:04.602Z,8.80
2019-03-09T02:05:33.191Z,8.90
2019-03-09T02:08:01.802Z,8.80
2019-03-09T02:10:30.562Z,8.80
2019-03-09T02:12:59.088Z,8.90
2019-03-09T02:15:27.677Z,8.90
2019-03-09T02:17:56.211Z,8.90
2019-03-09T02:20:24.750Z,8.90
2019-03-09T02:22:53.350Z,8.90
2019-03-09T02:25:21.889Z,8.90
2019-03-09T02:27:50.472Z,8.90
2019-03-09T02:30:19.633Z,8.90
2019-03-09T02:32:48.273Z,9.00
2019-03-09T02:35:19.932Z,9.00
2019-03-09T02:37:48.529Z,9.00
2019-03-09T02:40:24.818Z,9.00
2019-03-09T02:42:53.485Z,8.90
2019-03-09T02:45:23.836Z,9.00
2019-03-09T02:47:52.439Z,8.90
2019-03-09T02:50:21.156Z,8.90
2019-03-09T02:52:49.752Z,9.00
2019-03-09T02:55:18.339Z,9.00
2019-03-09T02:57:46.979Z,8.90
2019-03-09T03:00:19.458Z,8.90
2019-03-09T03:02:49.645Z,8.90
2019-03-09T03:05:18.234Z,8.90
2019-03-09T03:07:46.691Z,8.80
2019-03-09T03:10:15.367Z,8.70
2019-03-09T03:12:43.953Z,8.70
2019-03-09T03:15:32.882Z,8.70
2019-03-09T03:18:01.505Z,8.60
2019-03-09T03:20:30.078Z,8.60
2019-03-09T03:22:58.611Z,8.60
2019-03-09T03:25:27.343Z,8.60
2019-03-09T03:27:55.935Z,8.50
2019-03-09T03:30:24.706Z,8.50
2019-03-09T03:32:54.864Z,8.50
2019-03-09T03:35:23.793Z,8.50
2019-03-09T03:37:52.379Z,8.40
2019-03-09T03:40:20.973Z,8.30
2019-03-09T03:42:50.409Z,8.20
2019-03-09T03:45:19.129Z,8.10
2019-03-09T03:47:47.708Z,8.00
2019-03-09T03:50:16.315Z,8.00
2019-03-09T03:52:44.896Z,8.00
2019-03-09T03:55:13.427Z,7.90
2019-03-09T03:57:42.011Z,7.90
2019-03-09T04:00:13.096Z,7.90
2019-03-09T04:02:42.157Z,7.90
2019-03-09T04:05:10.826Z,7.90
2019-03-09T04:07:40.956Z,7.90
2019-03-09T04:10:11.907Z,7.90
2019-03-09T04:12:42.031Z,7.90
2019-03-09T04:15:10.816Z,7.80
2019-03-09T04:17:39.392Z,7.80
2019-03-09T04:20:10.489Z,7.80
2019-03-09T04:22:39.016Z,7.70
2019-03-09T04:25:08.547Z,7.70
2019-03-09T04:27:37.085Z,7.70
2019-03-09T04:30:11.295Z,7.60
2019-03-09T04:32:39.967Z,7.60
2019-03-09T04:35:09.116Z,7.70
2019-03-09T04:37:37.655Z,7.80
2019-03-09T04:40:08.552Z,7.80
2019-03-09T04:42:37.093Z,7.80
2019-03-09T04:45:08.474Z,7.80
2019-03-09T04:47:37.059Z,7.80
2019-03-09T04:50:11.324Z,7.80
2019-03-09T04:52:39.930Z,7.80
2019-03-09T04:55:09.319Z,7.80
2019-03-09T04:57:37.845Z,7.70
2019-03-09T05:00:09.464Z,7.70
2019-03-09T05:02:37.922Z,7.60
2019-03-09T05:05:09.303Z,7.50
2019-03-09T05:07:39.319Z,7.50
2019-03-09T05:10:30.586Z,7.50
2019-03-09T05:13:02.575Z,7.40
2019-03-09T05:15:31.114Z,7.40
2019-03-09T05:17:59.690Z,7.40
2019-03-09T05:20:28.236Z,7.50
2019-03-09T05:22:56.828Z,7.40
2019-03-09T05:25:25.366Z,7.50
2019-03-09T05:27:53.994Z,7.50
2019-03-09T05:30:36.526Z,7.50
2019-03-09T05:33:05.162Z,7.50
2019-03-09T05:35:33.745Z,7.50
2019-03-09T05:38:02.349Z,7.60
2019-03-09T05:40:30.994Z,7.60
2019-03-09T05:42:59.851Z,7.60
2019-03-09T05:45:28.498Z,7.60
2019-03-09T05:47:57.033Z,7.70
2019-03-09T05:50:25.682Z,7.70
2019-03-09T05:53:02.843Z,7.70
2019-03-09T05:55:31.498Z,7.70
2019-03-09T05:58:00.037Z,7.70
2019-03-09T06:00:28.684Z,7.70
2019-03-09T06:02:57.279Z,7.70
2019-03-09T06:05:33.570Z,7.70
2019-03-09T06:08:02.103Z,7.80
2019-03-09T06:10:30.760Z,7.80
2019-03-09T06:12:59.360Z,7.80
2019-03-09T06:15:28.002Z,7.80
2019-03-09T06:17:56.630Z,7.80
2019-03-09T06:20:25.215Z,7.80
2019-03-09T06:22:53.819Z,7.80
2019-03-09T06:25:22.348Z,7.70
2019-03-09T06:27:50.937Z,7.80
2019-03-09T06:30:19.608Z,7.70
2019-03-09T06:33:16.835Z,7.80
2019-03-09T06:35:47.374Z,7.70
2019-03-09T06:38:40.190Z,7.80
2019-03-09T06:41:11.890Z,7.80
2019-03-09T06:43:40.478Z,7.80
2019-03-09T06:46:09.002Z,7.80
2019-03-09T06:48:37.583Z,7.80
2019-03-09T06:51:06.186Z,7.90
2019-03-09T06:53:34.761Z,7.90
2019-03-09T06:56:03.222Z,8.00
2019-03-09T06:58:32.328Z,8.00
2019-03-09T07:01:02.965Z,8.10
2019-03-09T07:03:31.541Z,8.10
2019-03-09T07:06:00.007Z,8.10
2019-03-09T07:08:28.591Z,8.10
2019-03-09T07:10:57.136Z,8.20
2019-03-09T07:13:25.724Z,8.20
2019-03-09T07:15:54.299Z,8.20
2019-03-09T07:18:22.835Z,8.20
2019-03-09T07:20:51.491Z,8.40
2019-03-09T07:23:20.070Z,8.50
2019-03-09T07:25:48.665Z,8.50
2019-03-09T07:28:17.329Z,8.50
2019-03-09T07:30:45.863Z,8.50
2019-03-09T07:33:14.327Z,8.60
2019-03-09T07:35:43.057Z,8.70
2019-03-09T07:38:11.594Z,8.80
2019-03-09T07:40:40.050Z,9.00
2019-03-09T07:43:08.700Z,9.10
2019-03-09T07:45:37.399Z,9.40
2019-03-09T07:48:06.056Z,9.40
2019-03-09T07:50:34.703Z,9.40
2019-03-09T07:53:03.308Z,9.40
2019-03-09T07:55:32.390Z,9.50
2019-03-09T07:58:02.462Z,9.50
2019-03-09T08:00:31.190Z,9.60
2019-03-09T08:02:59.720Z,9.50
2019-03-09T08:05:28.383Z,9.40
2019-03-09T08:07:56.978Z,9.40
2019-03-09T08:10:27.560Z,9.30
2019-03-09T08:12:56.202Z,9.30
2019-03-09T08:15:25.203Z,9.30
2019-03-09T08:17:55.769Z,9.30
2019-03-09T08:20:24.030Z,9.30
2019-03-09T08:22:52.691Z,9.30
2019-03-09T08:25:23.246Z,9.40
2019-03-09T08:27:51.844Z,9.30
2019-03-09T08:30:22.911Z,9.30
2019-03-09T08:32:51.532Z,9.30
2019-03-09T08:35:20.436Z,9.30
2019-03-09T08:37:50.258Z,9.40
2019-03-09T08:40:20.241Z,9.40
2019-03-09T08:42:48.815Z,9.40
2019-03-09T08:45:21.426Z,9.40
2019-03-09T08:47:52.542Z,9.50
2019-03-09T08:50:21.870Z,9.50
2019-03-09T08:52:50.498Z,9.50
2019-03-09T08:55:19.226Z,9.60
2019-03-09T08:57:47.832Z,9.60
2019-03-09T09:00:24.790Z,9.60
2019-03-09T09:02:53.348Z,9.60
2019-03-09T09:05:21.894Z,9.60
2019-03-09T09:07:50.527Z,9.60
2019-03-09T09:10:19.130Z,9.60
2019-03-09T09:12:47.719Z,9.60
2019-03-09T09:15:17.574Z,9.60
2019-03-09T09:17:46.279Z,9.60
2019-03-09T09:20:18.011Z,9.60
2019-03-09T09:22:46.692Z,9.60
2019-03-09T09:25:15.359Z,9.60
2019-03-09T09:27:43.916Z,9.60
2019-03-09T09:30:15.526Z,9.70
2019-03-09T09:32:44.385Z,9.70
2019-03-09T09:35:13.727Z,9.70
2019-03-09T09:37:42.344Z,9.80
2019-03-09T09:40:25.343Z,9.70
2019-03-09T09:42:54.176Z,9.70
2019-03-09T09:45:23.046Z,9.80
2019-03-09T09:47:51.579Z,9.80
2019-03-09T09:50:20.234Z,9.80
2019-03-09T09:52:48.909Z,9.90
2019-03-09T09:55:18.939Z,10.10
2019-03-09T09:57:47.480Z,10.20
2019-03-09T10:00:21.173Z,10.30
2019-03-09T10:02:49.841Z,10.40
2019-03-09T10:05:18.501Z,10.50
2019-03-09T10:07:47.188Z,10.60
2019-03-09T10:10:17.792Z,10.80
2019-03-09T10:12:46.774Z,10.90
2019-03-09T10:15:21.038Z,11.00
2019-03-09T10:17:49.569Z,11.10
2019-03-09T10:20:18.172Z,11.10
2019-03-09T10:22:46.716Z,11.20
2019-03-09T10:25:15.614Z,11.20
2019-03-09T10:27:44.350Z,11.30
2019-03-09T10:30:28.122Z,11.30
2019-03-09T10:32:56.630Z,11.40
2019-03-09T10:35:25.095Z,11.50
2019-03-09T10:37:53.682Z,11.50
2019-03-09T10:40:22.146Z,11.40
2019-03-09T10:42:50.758Z,11.50
2019-03-09T10:45:22.394Z,11.40
2019-03-09T10:47:51.869Z,11.50
2019-03-09T10:50:21.127Z,11.50
2019-03-09T10:52:49.739Z,11.50
2019-03-09T10:55:29.577Z,11.40
2019-03-09T10:57:58.383Z,11.40
2019-03-09T11:00:29.475Z,11.40
2019-03-09T11:02:58.149Z,11.50
2019-03-09T11:05:26.662Z,11.50
2019-03-09T11:07:55.271Z,11.50
2019-03-09T11:10:24.270Z,11.50
2019-03-09T11:12:52.809Z,11.50
2019-03-09T11:15:21.663Z,11.60
2019-03-09T11:17:50.174Z,11.60
2019-03-09T11:20:20.460Z,11.50
2019-03-09T11:22:49.207Z,11.70
2019-03-09T11:25:17.813Z,11.60
2019-03-09T11:27:46.398Z,11.70
2019-03-09T11:30:23.441Z,11.70
2019-03-09T11:32:52.106Z,11.60
2019-03-09T11:35:20.746Z,11.70
2019-03-09T11:37:49.398Z,11.70
2019-03-09T11:40:18.002Z,11.70
2019-03-09T11:42:46.665Z,11.70
2019-03-09T11:45:16.840Z,11.80
2019-03-09T11:47:45.503Z,11.80
2019-03-09T11:50:16.081Z,11.90
2019-03-09T11:52:45.159Z,11.80
2019-03-09T11:55:15.859Z,11.70
2019-03-09T11:57:44.511Z,11.70
2019-03-09T12:00:17.808Z,11.80
2019-03-09T12:02:46.674Z,11.80
2019-03-09T12:05:15.278Z,11.80
2019-03-09T12:07:43.794Z,11.80
2019-03-09T12:10:13.047Z,11.70
2019-03-09T12:12:41.719Z,11.70
2019-03-09T12:15:17.742Z,11.70
2019-03-09T12:17:46.338Z,11.80
2019-03-09T12:20:17.833Z,11.70
2019-03-09T12:22:46.705Z,11.70
2019-03-09T12:25:16.626Z,11.70
2019-03-09T12:27:45.603Z,11.80
2019-03-09T12:30:20.846Z,11.70
2019-03-09T12:32:49.680Z,11.70
2019-03-09T12:35:18.313Z,11.70
2019-03-09T12:37:47.099Z,11.80
2019-03-09T12:40:21.715Z,11.70
2019-03-09T12:42:50.242Z,11.70
2019-03-09T12:45:19.091Z,11.60
2019-03-09T12:47:47.671Z,11.50
2019-03-09T12:50:21.897Z,11.50
2019-03-09T12:52:50.921Z,11.50
2019-03-09T12:55:19.406Z,11.50
2019-03-09T12:57:48.025Z,11.60
2019-03-09T13:00:21.998Z,11.60
2019-03-09T13:02:50.651Z,11.60
2019-03-09T13:05:19.430Z,11.70
2019-03-09T13:07:48.079Z,11.70
2019-03-09T13:10:17.261Z,11.80
2019-03-09T13:12:45.978Z,12.00
2019-03-09T13:15:16.157Z,12.20
2019-03-09T13:17:45.283Z,12.30
2019-03-09T13:20:15.843Z,12.20
2019-03-09T13:22:44.900Z,12.20
2019-03-09T13:25:14.132Z,12.20
2019-03-09T13:27:42.782Z,12.30
2019-03-09T13:30:14.334Z,12.40
2019-03-09T13:32:42.918Z,12.40
2019-03-09T13:35:11.594Z,12.40
2019-03-09T13:37:40.170Z,12.20
2019-03-09T13:40:10.542Z,12.10
2019-03-09T13:42:39.185Z,11.90
2019-03-09T13:45:16.207Z,11.90
2019-03-09T13:47:45.115Z,12.30
2019-03-09T13:50:14.847Z,12.10
2019-03-09T13:52:43.431Z,12.10
2019-03-09T13:55:13.306Z,11.90
2019-03-09T13:57:41.990Z,11.90
2019-03-09T14:00:20.768Z,12.00
2019-03-09T14:02:49.307Z,12.30
2019-03-09T14:05:17.923Z,12.40
2019-03-09T14:07:46.435Z,12.30
2019-03-09T14:10:16.261Z,12.20
2019-03-09T14:12:44.861Z,12.10
2019-03-09T14:15:17.439Z,12.10
2019-03-09T14:17:46.045Z,12.00
2019-03-09T14:20:15.874Z,12.00
2019-03-09T14:22:44.554Z,11.90
2019-03-09T14:25:14.783Z,12.00
2019-03-09T14:27:43.444Z,12.00
2019-03-09T14:30:16.407Z,12.00
2019-03-09T14:32:44.915Z,11.90
2019-03-09T14:35:13.839Z,11.80
2019-03-09T14:37:42.498Z,11.70
2019-03-09T14:40:14.045Z,11.80
2019-03-09T14:42:42.761Z,11.80
2019-03-09T14:45:16.186Z,11.70
2019-03-09T14:47:44.918Z,11.70
2019-03-09T14:50:13.991Z,11.70
2019-03-09T14:52:42.966Z,11.70
2019-03-09T14:55:12.493Z,11.70
2019-03-09T14:57:41.104Z,11.70
2019-03-09T15:00:15.607Z,11.70
2019-03-09T15:02:44.151Z,11.80
2019-03-09T15:05:12.826Z,11.80
2019-03-09T15:07:41.726Z,11.90
2019-03-09T15:10:12.097Z,11.90
2019-03-09T15:12:40.690Z,12.00
2019-03-09T15:15:19.972Z,11.90
2019-03-09T15:17:48.566Z,12.10
2019-03-09T15:20:17.660Z,12.20
2019-03-09T15:22:46.261Z,12.20
2019-03-09T15:25:17.879Z,12.10
2019-03-09T15:27:46.420Z,12.10
2019-03-09T15:30:16.747Z,12.00
2019-03-09T15:32:45.758Z,12.10
2019-03-09T15:35:16.183Z,12.00
2019-03-09T15:37:44.872Z,12.00
2019-03-09T15:40:20.704Z,12.00
2019-03-09T15:42:49.251Z,11.90
2019-03-09T15:45:18.858Z,11.90
2019-03-09T15:47:47.506Z,11.80
2019-03-09T15:50:17.387Z,11.80
2019-03-09T15:52:46.031Z,11.70
2019-03-09T15:55:14.819Z,11.70
2019-03-09T15:57:43.552Z,11.70
2019-03-09T16:00:23.378Z,11.70
2019-03-09T16:02:52.006Z,11.80
2019-03-09T16:05:20.587Z,11.80
2019-03-09T16:07:49.310Z,11.80
2019-03-09T16:10:22.502Z,11.80
2019-03-09T16:12:51.162Z,11.90
2019-03-09T16:15:20.098Z,11.90
2019-03-09T16:17:48.826Z,11.90
2019-03-09T16:20:22.883Z,12.00
2019-03-09T16:22:51.550Z,12.00
2019-03-09T16:25:20.091Z,12.00
2019-03-09T16:27:48.709Z,12.10
2019-03-09T16:30:22.051Z,12.10
2019-03-09T16:32:50.787Z,12.10
2019-03-09T16:35:19.491Z,12.20
2019-03-09T16:37:49.170Z,12.20
2019-03-09T16:40:20.657Z,12.30
2019-03-09T16:42:49.198Z,12.30
2019-03-09T16:45:17.914Z,12.30
2019-03-09T16:47:46.447Z,12.30
2019-03-09T16:50:18.584Z,12.30
2019-03-09T16:52:47.258Z,12.30
2019-03-09T16:55:15.885Z,12.20
2019-03-09T16:57:44.428Z,12.20
2019-03-09T17:00:24.202Z,12.30
2019-03-09T17:02:53.044Z,12.20
2019-03-09T17:05:21.677Z,12.20
2019-03-09T17:07:50.210Z,12.10
2019-03-09T17:10:38.119Z,12.10
2019-03-09T17:13:06.921Z,12.10
2019-03-09T17:15:35.483Z,12.20
2019-03-09T17:18:04.024Z,12.20
2019-03-09T17:20:32.586Z,12.10
2019-03-09T17:23:01.134Z,12.10
2019-03-09T17:25:29.687Z,12.10
2019-03-09T17:27:58.236Z,12.00
2019-03-09T17:30:26.796Z,12.00
2019-03-09T17:32:55.330Z,11.90
2019-03-09T17:35:25.469Z,11.90
2019-03-09T17:37:54.006Z,11.90
2019-03-09T17:40:22.642Z,11.90
2019-03-09T17:42:51.182Z,11.90
2019-03-09T17:45:24.739Z,11.80
2019-03-09T17:47:53.279Z,11.70
2019-03-09T17:50:21.825Z,11.80
2019-03-09T17:52:50.447Z,11.70
2019-03-09T17:55:19.252Z,11.70
2019-03-09T17:57:47.818Z,11.70
2019-03-09T18:00:22.246Z,11.60
2019-03-09T18:02:50.814Z,11.60
2019-03-09T18:05:20.017Z,11.50
2019-03-09T18:07:48.762Z,11.50
2019-03-09T18:10:41.498Z,11.60
2019-03-09T18:13:09.986Z,11.70
2019-03-09T18:15:38.454Z,11.70
2019-03-09T18:18:07.162Z,11.70
2019-03-09T18:20:35.703Z,11.80
2019-03-09T18:23:04.330Z,11.80
2019-03-09T18:25:32.794Z,11.90
2019-03-09T18:28:01.363Z,11.90
2019-03-09T18:30:29.894Z,11.90
2019-03-09T18:32:58.395Z,11.80
2019-03-09T18:35:27.002Z,11.40
2019-03-09T18:37:55.572Z,10.70
2019-03-09T18:40:24.103Z,10.20
2019-03-09T18:42:52.663Z,10.00
2019-03-09T18:45:23.299Z,9.80
2019-03-09T18:47:51.865Z,9.80
2019-03-09T18:50:20.466Z,9.60
2019-03-09T18:52:49.362Z,9.70
2019-03-09T18:55:17.974Z,9.70
2019-03-09T18:57:46.526Z,9.50
2019-03-09T19:00:20.036Z,9.40
2019-03-09T19:02:48.663Z,9.40
2019-03-09T19:05:17.365Z,9.30
2019-03-09T19:07:46.091Z,9.20
2019-03-09T19:10:19.118Z,9.10
2019-03-09T19:12:47.759Z,9.10
2019-03-09T19:15:18.057Z,9.20
2019-03-09T19:17:46.731Z,9.00
2019-03-09T19:20:16.955Z,8.90
2019-03-09T19:22:45.626Z,8.90
2019-03-09T19:25:15.221Z,9.00
2019-03-09T19:27:43.762Z,9.00
2019-03-09T19:30:20.694Z,9.00
2019-03-09T19:32:59.646Z,9.10
2019-03-09T19:35:19.721Z,9.20
2019-03-09T19:37:49.047Z,9.20
2019-03-09T19:40:22.017Z,9.20
2019-03-09T19:42:50.628Z,9.00
2019-03-09T19:45:20.447Z,9.00
2019-03-09T19:47:49.072Z,8.90
2019-03-09T19:50:24.878Z,8.90
2019-03-09T19:52:53.561Z,8.80
2019-03-09T19:55:22.119Z,8.90
2019-03-09T19:57:50.794Z,8.90
2019-03-09T20:00:20.343Z,8.90
2019-03-09T20:02:49.026Z,8.90
2019-03-09T20:05:17.722Z,8.80
2019-03-09T20:07:46.190Z,8.80
2019-03-09T20:10:22.503Z,8.60
2019-03-09T20:12:51.183Z,8.70
2019-03-09T20:15:20.948Z,8.80
2019-03-09T20:17:49.506Z,8.80
2019-03-09T20:20:21.318Z,8.80
2019-03-09T20:22:49.922Z,8.80
2019-03-09T20:25:18.683Z,8.80
2019-03-09T20:27:47.224Z,8.70
2019-03-09T20:30:20.641Z,8.80
2019-03-09T20:32:49.314Z,8.80
2019-03-09T20:35:17.895Z,8.80
2019-03-09T20:37:46.544Z,8.80
2019-03-09T20:40:18.452Z,8.80
2019-03-09T20:42:47.095Z,8.80
2019-03-09T20:45:18.705Z,8.80
2019-03-09T20:47:47.350Z,8.80
2019-03-09T20:50:17.433Z,8.80
2019-03-09T20:52:45.962Z,8.80
2019-03-09T20:55:14.690Z,8.90
2019-03-09T20:57:43.289Z,8.90
2019-03-09T21:00:17.164Z,8.70
2019-03-09T21:02:45.701Z,8.50
2019-03-09T21:05:14.422Z,8.50
2019-03-09T21:07:43.076Z,8.50
2019-03-09T21:10:16.659Z,8.50
2019-03-09T21:13:01.548Z,8.50
2019-03-09T21:15:30.217Z,8.50
2019-03-09T21:17:58.869Z,8.50
2019-03-09T21:20:27.489Z,8.40
2019-03-09T21:22:56.137Z,8.50
2019-03-09T21:25:24.964Z,8.50
2019-03-09T21:27:53.497Z,8.50
2019-03-09T21:30:22.219Z,8.60
2019-03-09T21:32:50.685Z,8.60
2019-03-09T21:35:19.267Z,8.50
2019-03-09T21:37:47.808Z,8.50
2019-03-09T21:40:16.389Z,8.50
2019-03-09T21:42:44.966Z,8.50
2019-03-09T21:45:16.416Z,8.50
2019-03-09T21:47:44.995Z,8.50
2019-03-09T21:50:17.560Z,8.50
2019-03-09T21:52:46.288Z,8.70
2019-03-09T21:55:16.830Z,8.90
2019-03-09T21:57:45.370Z,8.80
2019-03-09T22:00:18.066Z,8.70
2019-03-09T22:02:46.600Z,8.60
2019-03-09T22:05:15.182Z,8.50
2019-03-09T22:07:43.766Z,8.50
2019-03-09T22:10:13.277Z,8.50
2019-03-09T22:12:41.927Z,8.50
2019-03-09T22:15:15.766Z,8.60
2019-03-09T22:17:44.529Z,8.40
2019-03-09T22:20:14.006Z,8.70
2019-03-09T22:22:42.731Z,8.80
2019-03-09T22:25:16.562Z,8.80
2019-03-09T22:27:45.170Z,8.70
2019-03-09T22:30:18.223Z,8.60
2019-03-09T22:32:46.770Z,8.90
2019-03-09T22:35:15.619Z,8.70
2019-03-09T22:37:44.215Z,8.80
2019-03-09T22:40:17.015Z,8.60
2019-03-09T22:42:45.565Z,8.70
2019-03-09T22:45:16.251Z,8.50
2019-03-09T22:47:44.845Z,8.60
2019-03-09T22:50:18.737Z,8.30
2019-03-09T22:52:47.262Z,8.60
2019-03-09T22:55:16.002Z,8.50
2019-03-09T22:57:44.575Z,8.60
2019-03-09T23:00:26.241Z,8.40
2019-03-09T23:02:54.820Z,8.50
2019-03-09T23:05:23.816Z,8.60
2019-03-09T23:07:52.487Z,8.70
2019-03-09T23:10:28.452Z,8.60
2019-03-09T23:12:56.985Z,8.60
2019-03-09T23:15:25.574Z,8.60
2019-03-09T23:17:54.504Z,8.50
2019-03-09T23:20:23.090Z,8.30
2019-03-09T23:22:51.627Z,8.50
2019-03-09T23:25:20.282Z,8.30
2019-03-09T23:27:48.751Z,8.20
2019-03-09T23:30:19.660Z,8.10
2019-03-09T23:32:48.313Z,8.40
2019-03-09T23:35:17.192Z,8.30
2019-03-09T23:37:46.935Z,8.20
2019-03-09T23:40:18.552Z,8.10
2019-03-09T23:42:47.230Z,7.80
2019-03-09T23:45:21.410Z,8.00
2019-03-09T23:47:50.135Z,8.00
2019-03-09T23:50:19.966Z,7.80
2019-03-09T23:52:48.562Z,8.00
2019-03-09T23:55:22.304Z,8.00
2019-03-09T23:57:48.710Z,7.90
